Long Island Mac Arthur Airport
KISP : rendu visible

Aérodrome :











RETROUVEZ-NOUS SUR...

 
LOGIN :

S'inscrire | Disclaimer

   EN    FR    IT 

 









Légende :    VFR   VFR Marginal   IFR   IFR Intensif   IFR Très Intensif
Visi : 
Plafond : 
>= 8 km
>= 3000ft
5 à 8 km
1000 à 3000 ft
1500m à 5 km
500 à 1000 ft
800 à 1500m
200 à 500 ft
< 800m
< 200 ft
Symboles :   Orages  Brouillard  Fortes neiges  Fortes précipitations  Vent > 20 kt






- Altitude de l'aérodrome : 99 ft
- Code IATA : ISP


KISP - Long Island Mac Arthur

DERNIER METAR :
  • 220956Z 03006KT 10SM OVC011 12/11 A3008 RMK AO2 SLP186 T01220106

METARs EXPIRÉS :
  • 220856Z AUTO 07005KT 10SM OVC010 12/10 A3008 RMK AO2 SLP185 T01220100 55010
  • 220840Z AUTO 06007KT 10SM BKN011 12/09 A3007 RMK AO2 T01170094
  • 220756Z AUTO 06006KT 10SM CLR 12/08 A3008 RMK AO2 SLP185 T01170083

TAF KISP
Valide du 22 à 10h jusqu'au 23 à 06h UTC


220937Z 2210/2306 06007KT P6SM OVC010
FM221600 07006KT P6SM VCSH OVC015
TEMPO 2219/2223 5SM -RA BR
FM222300 10010KT 5SM -RA BR BKN008 OVC010
FM230400 13010KT 4SM -RA BR BKN005 OVC010



MET'MAP, la Météo Aéronautique d'un coup d'oeil ! - Copyright ORBIFLY Décembre 2007 - Disclaimer

ORBIFLY MET'MAP TEAM :

Programmation & Développement : Alexandra Zaïnal
Conception & Développement : Baudouin d'Aumeries
Co-Programmation & Développement : Marc-Olivier Méhu
Soutien technique & logistique : Manuel Goepfert

Contact : metmap@orbifly.com




SOURCES & CREDITS :

   NOAA       Earth
Advisory